sensor_id;sensor_type;location;lat;lon;timestamp;P1;durP1;ratioP1;P2;durP2;ratioP2
61499;SDS011;47361;49.996;19.918;2024-01-30T00:07:39;63.4;;;32.2;;
61499;SDS011;47361;49.996;19.918;2024-01-30T00:13:40;65.8;;;32.2;;
61499;SDS011;47361;49.996;19.918;2024-01-30T00:14:41;65.8;;;32.2;;
61499;SDS011;47361;49.996;19.918;2024-01-30T00:24:39;63.9;;;31.3;;
61499;SDS011;47361;49.996;19.918;2024-01-30T00:26:39;63.9;;;31.3;;
61499;SDS011;47361;49.996;19.918;2024-01-30T00:28:39;60.1;;;31.3;;
61499;SDS011;47361;49.996;19.918;2024-01-30T00:30:39;60.1;;;31.3;;
61499;SDS011;47361;49.996;19.918;2024-01-30T00:33:40;68.3;;;31.7;;
61499;SDS011;47361;49.996;19.918;2024-01-30T00:34:39;68.3;;;31.7;;
61499;SDS011;47361;49.996;19.918;2024-01-30T00:35:40;68.3;;;31.7;;
61499;SDS011;47361;49.996;19.918;2024-01-30T00:38:39;61.5;;;30.9;;
61499;SDS011;47361;49.996;19.918;2024-01-30T00:42:39;61.5;;;30.9;;
61499;SDS011;47361;49.996;19.918;2024-01-30T00:44:39;63.9;;;30.8;;
61499;SDS011;47361;49.996;19.918;2024-01-30T00:45:39;63.9;;;30.8;;
61499;SDS011;47361;49.996;19.918;2024-01-30T00:47:39;63.9;;;30.8;;
61499;SDS011;47361;49.996;19.918;2024-01-30T00:49:39;65.6;;;31.6;;
61499;SDS011;47361;49.996;19.918;2024-01-30T00:51:39;65.6;;;31.6;;
61499;SDS011;47361;49.996;19.918;2024-01-30T00:57:39;61.7;;;30.5;;
61499;SDS011;47361;49.996;19.918;2024-01-30T01:00:40;58.9;;;30.2;;
61499;SDS011;47361;49.996;19.918;2024-01-30T01:02:39;58.9;;;30.2;;
61499;SDS011;47361;49.996;19.918;2024-01-30T01:06:39;61.0;;;29.2;;
61499;SDS011;47361;49.996;19.918;2024-01-30T01:14:41;60.2;;;29.3;;
61499;SDS011;47361;49.996;19.918;2024-01-30T01:17:40;60.2;;;29.3;;
61499;SDS011;47361;49.996;19.918;2024-01-30T01:23:39;61.6;;;29.6;;
61499;SDS011;47361;49.996;19.918;2024-01-30T01:29:39;61.5;;;30.7;;
61499;SDS011;47361;49.996;19.918;2024-01-30T01:33:39;58.2;;;28.7;;
61499;SDS011;47361;49.996;19.918;2024-01-30T01:36:39;58.2;;;28.7;;
61499;SDS011;47361;49.996;19.918;2024-01-30T01:37:39;58.2;;;28.7;;
61499;SDS011;47361;49.996;19.918;2024-01-30T01:44:40;64.4;;;31.2;;
61499;SDS011;47361;49.996;19.918;2024-01-30T01:46:39;64.4;;;31.2;;
61499;SDS011;47361;49.996;19.918;2024-01-30T01:49:39;61.0;;;31.0;;
61499;SDS011;47361;49.996;19.918;2024-01-30T02:03:40;67.2;;;32.1;;
61499;SDS011;47361;49.996;19.918;2024-01-30T02:05:41;67.2;;;32.1;;
61499;SDS011;47361;49.996;19.918;2024-01-30T02:16:39;61.5;;;30.2;;
61499;SDS011;47361;49.996;19.918;2024-01-30T02:20:39;64.3;;;29.3;;
61499;SDS011;47361;49.996;19.918;2024-01-30T02:25:40;64.6;;;28.5;;
61499;SDS011;47361;49.996;19.918;2024-01-30T02:28:39;63.7;;;30.2;;
61499;SDS011;47361;49.996;19.918;2024-01-30T02:32:39;63.7;;;30.2;;
61499;SDS011;47361;49.996;19.918;2024-01-30T02:33:39;65.8;;;30.1;;
61499;SDS011;47361;49.996;19.918;2024-01-30T02:37:39;65.8;;;30.1;;
61499;SDS011;47361;49.996;19.918;2024-01-30T02:38:39;61.7;;;28.4;;
61499;SDS011;47361;49.996;19.918;2024-01-30T02:40:39;61.7;;;28.4;;
61499;SDS011;47361;49.996;19.918;2024-01-30T02:41:39;61.7;;;28.4;;
61499;SDS011;47361;49.996;19.918;2024-01-30T02:44:39;56.3;;;28.2;;
61499;SDS011;47361;49.996;19.918;2024-01-30T02:46:39;56.3;;;28.2;;
61499;SDS011;47361;49.996;19.918;2024-01-30T02:48:39;60.5;;;29.3;;
61499;SDS011;47361;49.996;19.918;2024-01-30T02:53:40;56.4;;;27.6;;
61499;SDS011;47361;49.996;19.918;2024-01-30T02:55:39;56.4;;;27.6;;
61499;SDS011;47361;49.996;19.918;2024-01-30T02:56:39;56.4;;;27.6;;
61499;SDS011;47361;49.996;19.918;2024-01-30T02:59:39;60.5;;;27.6;;
61499;SDS011;47361;49.996;19.918;2024-01-30T03:02:39;60.5;;;27.6;;
61499;SDS011;47361;49.996;19.918;2024-01-30T03:03:39;59.4;;;29.0;;
61499;SDS011;47361;49.996;19.918;2024-01-30T03:04:40;59.4;;;29.0;;
61499;SDS011;47361;49.996;19.918;2024-01-30T03:10:39;59.3;;;27.5;;
61499;SDS011;47361;49.996;19.918;2024-01-30T03:13:39;54.0;;;25.6;;
61499;SDS011;47361;49.996;19.918;2024-01-30T03:16:39;54.0;;;25.6;;
61499;SDS011;47361;49.996;19.918;2024-01-30T03:19:39;55.3;;;25.7;;
61499;SDS011;47361;49.996;19.918;2024-01-30T03:21:39;55.3;;;25.7;;
61499;SDS011;47361;49.996;19.918;2024-01-30T03:32:40;51.1;;;23.9;;
61499;SDS011;47361;49.996;19.918;2024-01-30T03:33:39;51.1;;;23.9;;
61499;SDS011;47361;49.996;19.918;2024-01-30T03:35:39;51.1;;;23.9;;
61499;SDS011;47361;49.996;19.918;2024-01-30T03:39:39;49.0;;;23.7;;
61499;SDS011;47361;49.996;19.918;2024-01-30T03:42:39;53.1;;;23.2;;
61499;SDS011;47361;49.996;19.918;2024-01-30T03:49:40;46.4;;;23.5;;
61499;SDS011;47361;49.996;19.918;2024-01-30T03:51:39;46.4;;;23.5;;
61499;SDS011;47361;49.996;19.918;2024-01-30T03:55:39;48.9;;;22.9;;
61499;SDS011;47361;49.996;19.918;2024-01-30T03:57:39;46.8;;;23.0;;
61499;SDS011;47361;49.996;19.918;2024-01-30T04:01:39;46.8;;;23.0;;
61499;SDS011;47361;49.996;19.918;2024-01-30T04:03:39;50.0;;;22.9;;
61499;SDS011;47361;49.996;19.918;2024-01-30T04:05:39;50.0;;;22.9;;
61499;SDS011;47361;49.996;19.918;2024-01-30T04:07:39;53.3;;;23.7;;
61499;SDS011;47361;49.996;19.918;2024-01-30T04:09:39;53.3;;;23.7;;
61499;SDS011;47361;49.996;19.918;2024-01-30T04:14:39;51.3;;;24.2;;
61499;SDS011;47361;49.996;19.918;2024-01-30T04:15:39;51.3;;;24.2;;
61499;SDS011;47361;49.996;19.918;2024-01-30T04:16:39;51.3;;;24.2;;
61499;SDS011;47361;49.996;19.918;2024-01-30T04:19:41;47.5;;;22.8;;
61499;SDS011;47361;49.996;19.918;2024-01-30T04:21:39;47.5;;;22.8;;
61499;SDS011;47361;49.996;19.918;2024-01-30T04:28:41;47.8;;;23.9;;
61499;SDS011;47361;49.996;19.918;2024-01-30T04:32:39;47.0;;;22.6;;
61499;SDS011;47361;49.996;19.918;2024-01-30T04:34:39;47.0;;;22.6;;
61499;SDS011;47361;49.996;19.918;2024-01-30T04:36:39;47.0;;;22.6;;
61499;SDS011;47361;49.996;19.918;2024-01-30T04:39:40;45.6;;;22.2;;
61499;SDS011;47361;49.996;19.918;2024-01-30T04:41:39;45.6;;;22.2;;
61499;SDS011;47361;49.996;19.918;2024-01-30T04:44:39;50.6;;;23.1;;
61499;SDS011;47361;49.996;19.918;2024-01-30T04:47:39;45.3;;;21.6;;
61499;SDS011;47361;49.996;19.918;2024-01-30T04:51:39;45.3;;;21.6;;
61499;SDS011;47361;49.996;19.918;2024-01-30T04:54:39;44.6;;;22.0;;
61499;SDS011;47361;49.996;19.918;2024-01-30T04:57:39;45.9;;;21.6;;
61499;SDS011;47361;49.996;19.918;2024-01-30T05:07:41;48.3;;;22.0;;
61499;SDS011;47361;49.996;19.918;2024-01-30T05:09:39;48.3;;;22.0;;
61499;SDS011;47361;49.996;19.918;2024-01-30T05:11:40;48.3;;;22.0;;
61499;SDS011;47361;49.996;19.918;2024-01-30T05:14:39;54.2;;;23.2;;
61499;SDS011;47361;49.996;19.918;2024-01-30T05:16:39;54.2;;;23.2;;
61499;SDS011;47361;49.996;19.918;2024-01-30T05:19:39;44.9;;;21.4;;
61499;SDS011;47361;49.996;19.918;2024-01-30T05:20:39;44.9;;;21.4;;
61499;SDS011;47361;49.996;19.918;2024-01-30T05:22:39;49.2;;;22.1;;
61499;SDS011;47361;49.996;19.918;2024-01-30T05:28:39;42.6;;;20.4;;
61499;SDS011;47361;49.996;19.918;2024-01-30T05:30:39;42.6;;;20.4;;
61499;SDS011;47361;49.996;19.918;2024-01-30T05:32:39;47.6;;;21.2;;
61499;SDS011;47361;49.996;19.918;2024-01-30T05:34:39;47.6;;;21.2;;
61499;SDS011;47361;49.996;19.918;2024-01-30T05:36:39;47.6;;;21.2;;
61499;SDS011;47361;49.996;19.918;2024-01-30T05:39:39;42.1;;;19.6;;
61499;SDS011;47361;49.996;19.918;2024-01-30T05:44:39;39.5;;;19.8;;
61499;SDS011;47361;49.996;19.918;2024-01-30T05:48:39;41.5;;;19.3;;
61499;SDS011;47361;49.996;19.918;2024-01-30T05:55:39;41.0;;;18.6;;
61499;SDS011;47361;49.996;19.918;2024-01-30T06:00:39;39.1;;;18.1;;
61499;SDS011;47361;49.996;19.918;2024-01-30T06:05:39;37.9;;;17.8;;
61499;SDS011;47361;49.996;19.918;2024-01-30T06:07:40;35.2;;;16.6;;
61499;SDS011;47361;49.996;19.918;2024-01-30T06:10:39;35.2;;;16.6;;
61499;SDS011;47361;49.996;19.918;2024-01-30T06:13:39;35.4;;;17.3;;
61499;SDS011;47361;49.996;19.918;2024-01-30T06:17:40;33.5;;;17.0;;
61499;SDS011;47361;49.996;19.918;2024-01-30T06:22:39;37.6;;;17.9;;
61499;SDS011;47361;49.996;19.918;2024-01-30T06:25:40;37.6;;;17.9;;
61499;SDS011;47361;49.996;19.918;2024-01-30T06:27:39;35.2;;;17.1;;
61499;SDS011;47361;49.996;19.918;2024-01-30T06:29:42;35.2;;;17.1;;
61499;SDS011;47361;49.996;19.918;2024-01-30T06:37:39;39.8;;;18.1;;
61499;SDS011;47361;49.996;19.918;2024-01-30T06:39:39;39.8;;;18.1;;
61499;SDS011;47361;49.996;19.918;2024-01-30T06:42:39;37.3;;;17.0;;
61499;SDS011;47361;49.996;19.918;2024-01-30T06:44:39;37.3;;;17.0;;
61499;SDS011;47361;49.996;19.918;2024-01-30T06:51:40;39.4;;;17.9;;
61499;SDS011;47361;49.996;19.918;2024-01-30T06:53:39;43.8;;;18.3;;
61499;SDS011;47361;49.996;19.918;2024-01-30T06:56:40;43.8;;;18.3;;
61499;SDS011;47361;49.996;19.918;2024-01-30T07:06:39;39.3;;;17.9;;
61499;SDS011;47361;49.996;19.918;2024-01-30T07:12:39;41.2;;;18.5;;
61499;SDS011;47361;49.996;19.918;2024-01-30T07:15:39;41.2;;;18.5;;
61499;SDS011;47361;49.996;19.918;2024-01-30T07:17:39;44.7;;;20.0;;
61499;SDS011;47361;49.996;19.918;2024-01-30T07:20:40;44.7;;;20.0;;
61499;SDS011;47361;49.996;19.918;2024-01-30T07:27:39;44.1;;;19.2;;
61499;SDS011;47361;49.996;19.918;2024-01-30T07:29:40;44.1;;;19.2;;
61499;SDS011;47361;49.996;19.918;2024-01-30T07:31:39;39.8;;;19.1;;
61499;SDS011;47361;49.996;19.918;2024-01-30T07:40:39;37.4;;;19.5;;
61499;SDS011;47361;49.996;19.918;2024-01-30T07:47:39;40.5;;;19.9;;
61499;SDS011;47361;49.996;19.918;2024-01-30T07:51:40;41.5;;;20.5;;
61499;SDS011;47361;49.996;19.918;2024-01-30T07:52:39;41.5;;;20.5;;
61499;SDS011;47361;49.996;19.918;2024-01-30T07:56:39;43.8;;;21.5;;
61499;SDS011;47361;49.996;19.918;2024-01-30T07:59:41;43.8;;;21.5;;
61499;SDS011;47361;49.996;19.918;2024-01-30T08:01:39;45.6;;;22.1;;
61499;SDS011;47361;49.996;19.918;2024-01-30T08:03:39;45.6;;;22.1;;
61499;SDS011;47361;49.996;19.918;2024-01-30T08:06:39;42.9;;;21.7;;
61499;SDS011;47361;49.996;19.918;2024-01-30T08:07:39;42.9;;;21.7;;
61499;SDS011;47361;49.996;19.918;2024-01-30T08:11:39;45.0;;;21.7;;
61499;SDS011;47361;49.996;19.918;2024-01-30T08:13:39;45.0;;;21.7;;
61499;SDS011;47361;49.996;19.918;2024-01-30T08:15:39;45.0;;;21.7;;
61499;SDS011;47361;49.996;19.918;2024-01-30T08:16:39;47.6;;;22.5;;
61499;SDS011;47361;49.996;19.918;2024-01-30T08:18:39;47.6;;;22.5;;
61499;SDS011;47361;49.996;19.918;2024-01-30T08:21:39;45.0;;;21.8;;
61499;SDS011;47361;49.996;19.918;2024-01-30T08:23:39;45.0;;;21.8;;
61499;SDS011;47361;49.996;19.918;2024-01-30T08:25:39;45.0;;;21.8;;
61499;SDS011;47361;49.996;19.918;2024-01-30T08:27:39;42.0;;;21.6;;
61499;SDS011;47361;49.996;19.918;2024-01-30T08:31:39;44.8;;;22.3;;
61499;SDS011;47361;49.996;19.918;2024-01-30T08:36:39;44.6;;;20.8;;
61499;SDS011;47361;49.996;19.918;2024-01-30T08:38:40;44.6;;;20.8;;
61499;SDS011;47361;49.996;19.918;2024-01-30T08:41:39;41.2;;;20.7;;
61499;SDS011;47361;49.996;19.918;2024-01-30T08:44:39;41.2;;;20.7;;
61499;SDS011;47361;49.996;19.918;2024-01-30T08:46:39;43.0;;;21.3;;
61499;SDS011;47361;49.996;19.918;2024-01-30T08:48:39;43.0;;;21.3;;
61499;SDS011;47361;49.996;19.918;2024-01-30T08:51:39;46.0;;;22.7;;
61499;SDS011;47361;49.996;19.918;2024-01-30T08:52:39;46.0;;;22.7;;
61499;SDS011;47361;49.996;19.918;2024-01-30T08:55:39;46.0;;;22.7;;
61499;SDS011;47361;49.996;19.918;2024-01-30T08:56:39;46.0;;;23.0;;
61499;SDS011;47361;49.996;19.918;2024-01-30T09:00:39;46.0;;;23.0;;
61499;SDS011;47361;49.996;19.918;2024-01-30T09:01:39;45.1;;;22.3;;
61499;SDS011;47361;49.996;19.918;2024-01-30T09:03:40;45.1;;;22.3;;
61499;SDS011;47361;49.996;19.918;2024-01-30T09:06:39;49.4;;;23.0;;
61499;SDS011;47361;49.996;19.918;2024-01-30T09:07:39;49.4;;;23.0;;
61499;SDS011;47361;49.996;19.918;2024-01-30T09:11:40;44.9;;;23.3;;
61499;SDS011;47361;49.996;19.918;2024-01-30T09:14:40;44.9;;;23.3;;
61499;SDS011;47361;49.996;19.918;2024-01-30T09:16:39;48.6;;;23.5;;
61499;SDS011;47361;49.996;19.918;2024-01-30T09:17:39;48.6;;;23.5;;
61499;SDS011;47361;49.996;19.918;2024-01-30T09:20:39;48.6;;;23.5;;
61499;SDS011;47361;49.996;19.918;2024-01-30T09:21:39;47.5;;;22.5;;
61499;SDS011;47361;49.996;19.918;2024-01-30T09:24:40;47.5;;;22.5;;
61499;SDS011;47361;49.996;19.918;2024-01-30T09:26:39;48.3;;;24.2;;
61499;SDS011;47361;49.996;19.918;2024-01-30T09:29:39;48.3;;;24.2;;
61499;SDS011;47361;49.996;19.918;2024-01-30T09:32:39;42.1;;;20.7;;
61499;SDS011;47361;49.996;19.918;2024-01-30T09:35:39;42.1;;;20.7;;
61499;SDS011;47361;49.996;19.918;2024-01-30T09:37:40;51.7;;;25.7;;
61499;SDS011;47361;49.996;19.918;2024-01-30T09:39:39;51.7;;;25.7;;
61499;SDS011;47361;49.996;19.918;2024-01-30T09:41:45;56.4;;;25.4;;
61499;SDS011;47361;49.996;19.918;2024-01-30T09:44:43;56.4;;;25.4;;
61499;SDS011;47361;49.996;19.918;2024-01-30T09:46:40;47.9;;;25.1;;
61499;SDS011;47361;49.996;19.918;2024-01-30T09:48:41;47.9;;;25.1;;
61499;SDS011;47361;49.996;19.918;2024-01-30T09:51:39;44.8;;;24.2;;
61499;SDS011;47361;49.996;19.918;2024-01-30T09:52:40;44.8;;;24.2;;
61499;SDS011;47361;49.996;19.918;2024-01-30T09:54:40;44.8;;;24.2;;
61499;SDS011;47361;49.996;19.918;2024-01-30T09:55:42;44.8;;;24.2;;
61499;SDS011;47361;49.996;19.918;2024-01-30T09:57:41;42.0;;;21.2;;
61499;SDS011;47361;49.996;19.918;2024-01-30T10:01:40;52.8;;;27.1;;
61499;SDS011;47361;49.996;19.918;2024-01-30T10:02:40;52.8;;;27.1;;
61499;SDS011;47361;49.996;19.918;2024-01-30T10:06:40;54.0;;;29.9;;
61499;SDS011;47361;49.996;19.918;2024-01-30T10:11:39;49.8;;;25.6;;
61499;SDS011;47361;49.996;19.918;2024-01-30T10:14:41;49.8;;;25.6;;
61499;SDS011;47361;49.996;19.918;2024-01-30T10:21:40;48.3;;;25.1;;
61499;SDS011;47361;49.996;19.918;2024-01-30T10:30:39;37.3;;;18.6;;
61499;SDS011;47361;49.996;19.918;2024-01-30T10:32:40;37.3;;;18.6;;
61499;SDS011;47361;49.996;19.918;2024-01-30T10:34:40;37.3;;;18.6;;
61499;SDS011;47361;49.996;19.918;2024-01-30T10:36:40;39.3;;;19.1;;
61499;SDS011;47361;49.996;19.918;2024-01-30T10:37:40;39.3;;;19.1;;
61499;SDS011;47361;49.996;19.918;2024-01-30T10:41:43;37.5;;;19.0;;
61499;SDS011;47361;49.996;19.918;2024-01-30T10:44:47;37.5;;;19.0;;
61499;SDS011;47361;49.996;19.918;2024-01-30T10:46:42;32.5;;;18.3;;
61499;SDS011;47361;49.996;19.918;2024-01-30T10:50:40;31.0;;;17.2;;
61499;SDS011;47361;49.996;19.918;2024-01-30T10:51:40;31.0;;;17.2;;
61499;SDS011;47361;49.996;19.918;2024-01-30T10:53:41;31.0;;;17.2;;
61499;SDS011;47361;49.996;19.918;2024-01-30T10:55:40;28.4;;;16.0;;
61499;SDS011;47361;49.996;19.918;2024-01-30T10:57:39;28.4;;;16.0;;
61499;SDS011;47361;49.996;19.918;2024-01-30T10:59:40;28.4;;;16.0;;
61499;SDS011;47361;49.996;19.918;2024-01-30T11:01:39;32.0;;;15.0;;
61499;SDS011;47361;49.996;19.918;2024-01-30T11:03:40;32.0;;;15.0;;
61499;SDS011;47361;49.996;19.918;2024-01-30T11:05:40;31.3;;;15.9;;
61499;SDS011;47361;49.996;19.918;2024-01-30T11:09:39;31.3;;;15.9;;
61499;SDS011;47361;49.996;19.918;2024-01-30T11:11:49;28.1;;;15.4;;
61499;SDS011;47361;49.996;19.918;2024-01-30T11:13:39;28.1;;;15.4;;
61499;SDS011;47361;49.996;19.918;2024-01-30T11:19:41;25.6;;;14.6;;
61499;SDS011;47361;49.996;19.918;2024-01-30T11:21:42;28.8;;;16.7;;
61499;SDS011;47361;49.996;19.918;2024-01-30T11:25:39;29.4;;;16.8;;
61499;SDS011;47361;49.996;19.918;2024-01-30T11:28:39;29.4;;;16.8;;
61499;SDS011;47361;49.996;19.918;2024-01-30T11:30:40;30.5;;;17.2;;
61499;SDS011;47361;49.996;19.918;2024-01-30T11:31:39;30.5;;;17.2;;
61499;SDS011;47361;49.996;19.918;2024-01-30T11:32:40;30.5;;;17.2;;
61499;SDS011;47361;49.996;19.918;2024-01-30T11:33:39;30.5;;;17.2;;
61499;SDS011;47361;49.996;19.918;2024-01-30T11:35:41;28.9;;;15.0;;
61499;SDS011;47361;49.996;19.918;2024-01-30T11:36:42;28.9;;;15.0;;
61499;SDS011;47361;49.996;19.918;2024-01-30T11:39:40;28.9;;;15.0;;
61499;SDS011;47361;49.996;19.918;2024-01-30T11:40:40;27.8;;;14.7;;
61499;SDS011;47361;49.996;19.918;2024-01-30T11:41:40;27.8;;;14.7;;
61499;SDS011;47361;49.996;19.918;2024-01-30T11:52:41;23.9;;;13.4;;
61499;SDS011;47361;49.996;19.918;2024-01-30T11:57:39;23.3;;;13.1;;
61499;SDS011;47361;49.996;19.918;2024-01-30T11:59:40;23.3;;;13.1;;
61499;SDS011;47361;49.996;19.918;2024-01-30T12:00:39;20.5;;;12.4;;
61499;SDS011;47361;49.996;19.918;2024-01-30T12:03:40;20.5;;;12.4;;
61499;SDS011;47361;49.996;19.918;2024-01-30T12:06:40;24.2;;;13.6;;
61499;SDS011;47361;49.996;19.918;2024-01-30T12:08:39;24.2;;;13.6;;
61499;SDS011;47361;49.996;19.918;2024-01-30T12:10:39;22.6;;;12.3;;
61499;SDS011;47361;49.996;19.918;2024-01-30T12:15:40;23.2;;;13.8;;
61499;SDS011;47361;49.996;19.918;2024-01-30T12:16:40;23.2;;;13.8;;
61499;SDS011;47361;49.996;19.918;2024-01-30T12:20:39;29.4;;;13.8;;
61499;SDS011;47361;49.996;19.918;2024-01-30T12:22:41;29.4;;;13.8;;
61499;SDS011;47361;49.996;19.918;2024-01-30T12:25:39;22.1;;;11.8;;
61499;SDS011;47361;49.996;19.918;2024-01-30T12:28:48;22.1;;;11.8;;
61499;SDS011;47361;49.996;19.918;2024-01-30T12:30:39;22.6;;;12.3;;
61499;SDS011;47361;49.996;19.918;2024-01-30T12:40:40;24.2;;;13.4;;
61499;SDS011;47361;49.996;19.918;2024-01-30T12:41:40;24.2;;;13.4;;
61499;SDS011;47361;49.996;19.918;2024-01-30T12:45:41;25.5;;;13.8;;
61499;SDS011;47361;49.996;19.918;2024-01-30T12:49:39;25.5;;;13.8;;
61499;SDS011;47361;49.996;19.918;2024-01-30T12:51:40;28.9;;;15.9;;
61499;SDS011;47361;49.996;19.918;2024-01-30T12:55:40;30.0;;;16.6;;
61499;SDS011;47361;49.996;19.918;2024-01-30T12:59:40;30.0;;;16.6;;
61499;SDS011;47361;49.996;19.918;2024-01-30T13:00:39;29.9;;;16.3;;
61499;SDS011;47361;49.996;19.918;2024-01-30T13:07:40;33.1;;;17.6;;
61499;SDS011;47361;49.996;19.918;2024-01-30T13:10:40;30.0;;;16.9;;
61499;SDS011;47361;49.996;19.918;2024-01-30T13:19:40;31.1;;;18.0;;
61499;SDS011;47361;49.996;19.918;2024-01-30T13:21:40;32.2;;;17.9;;
61499;SDS011;47361;49.996;19.918;2024-01-30T13:23:39;32.2;;;17.9;;
61499;SDS011;47361;49.996;19.918;2024-01-30T13:25:39;31.0;;;17.3;;
61499;SDS011;47361;49.996;19.918;2024-01-30T13:30:41;29.0;;;16.3;;
61499;SDS011;47361;49.996;19.918;2024-01-30T13:36:40;31.9;;;18.7;;
61499;SDS011;47361;49.996;19.918;2024-01-30T13:40:40;34.8;;;19.6;;
61499;SDS011;47361;49.996;19.918;2024-01-30T13:45:40;39.2;;;21.8;;
61499;SDS011;47361;49.996;19.918;2024-01-30T13:49:40;39.2;;;21.8;;
61499;SDS011;47361;49.996;19.918;2024-01-30T13:51:40;37.4;;;20.9;;
61499;SDS011;47361;49.996;19.918;2024-01-30T14:00:40;35.6;;;19.4;;
61499;SDS011;47361;49.996;19.918;2024-01-30T14:03:40;35.6;;;19.4;;
61499;SDS011;47361;49.996;19.918;2024-01-30T14:05:40;39.8;;;23.1;;
61499;SDS011;47361;49.996;19.918;2024-01-30T14:06:40;39.8;;;23.1;;
61499;SDS011;47361;49.996;19.918;2024-01-30T14:07:40;39.8;;;23.1;;
61499;SDS011;47361;49.996;19.918;2024-01-30T14:08:40;39.8;;;23.1;;
61499;SDS011;47361;49.996;19.918;2024-01-30T14:10:40;36.0;;;20.2;;
61499;SDS011;47361;49.996;19.918;2024-01-30T14:12:40;36.0;;;20.2;;
61499;SDS011;47361;49.996;19.918;2024-01-30T14:15:40;38.0;;;21.1;;
61499;SDS011;47361;49.996;19.918;2024-01-30T14:17:40;38.0;;;21.1;;
61499;SDS011;47361;49.996;19.918;2024-01-30T14:20:40;36.3;;;22.1;;
61499;SDS011;47361;49.996;19.918;2024-01-30T14:22:40;36.3;;;22.1;;
61499;SDS011;47361;49.996;19.918;2024-01-30T14:24:40;36.3;;;22.1;;
61499;SDS011;47361;49.996;19.918;2024-01-30T14:25:40;36.0;;;21.9;;
61499;SDS011;47361;49.996;19.918;2024-01-30T14:26:40;36.0;;;21.9;;
61499;SDS011;47361;49.996;19.918;2024-01-30T14:28:40;36.0;;;21.9;;
61499;SDS011;47361;49.996;19.918;2024-01-30T14:30:40;41.9;;;23.2;;
61499;SDS011;47361;49.996;19.918;2024-01-30T14:35:40;40.5;;;23.7;;
61499;SDS011;47361;49.996;19.918;2024-01-30T14:36:40;40.5;;;23.7;;
61499;SDS011;47361;49.996;19.918;2024-01-30T14:41:40;41.2;;;24.1;;
61499;SDS011;47361;49.996;19.918;2024-01-30T14:43:40;41.2;;;24.1;;
61499;SDS011;47361;49.996;19.918;2024-01-30T14:44:40;41.9;;;24.7;;
61499;SDS011;47361;49.996;19.918;2024-01-30T14:46:40;41.9;;;24.7;;
61499;SDS011;47361;49.996;19.918;2024-01-30T14:47:40;41.9;;;24.7;;
61499;SDS011;47361;49.996;19.918;2024-01-30T14:48:40;41.9;;;24.7;;
61499;SDS011;47361;49.996;19.918;2024-01-30T14:49:40;44.2;;;24.9;;
61499;SDS011;47361;49.996;19.918;2024-01-30T14:50:40;44.2;;;24.9;;
61499;SDS011;47361;49.996;19.918;2024-01-30T14:51:40;44.2;;;24.9;;
61499;SDS011;47361;49.996;19.918;2024-01-30T14:52:40;44.2;;;24.9;;
61499;SDS011;47361;49.996;19.918;2024-01-30T14:53:40;44.2;;;24.9;;
61499;SDS011;47361;49.996;19.918;2024-01-30T14:54:40;45.9;;;25.4;;
61499;SDS011;47361;49.996;19.918;2024-01-30T14:56:40;45.9;;;25.4;;
61499;SDS011;47361;49.996;19.918;2024-01-30T14:59:41;49.2;;;27.2;;
61499;SDS011;47361;49.996;19.918;2024-01-30T15:02:40;49.2;;;27.2;;
61499;SDS011;47361;49.996;19.918;2024-01-30T15:05:40;49.5;;;27.8;;
61499;SDS011;47361;49.996;19.918;2024-01-30T15:06:40;49.5;;;27.8;;
61499;SDS011;47361;49.996;19.918;2024-01-30T15:07:40;49.5;;;27.8;;
61499;SDS011;47361;49.996;19.918;2024-01-30T15:08:40;49.5;;;27.8;;
61499;SDS011;47361;49.996;19.918;2024-01-30T15:09:40;52.7;;;29.8;;
61499;SDS011;47361;49.996;19.918;2024-01-30T15:10:40;52.7;;;29.8;;
61499;SDS011;47361;49.996;19.918;2024-01-30T15:11:40;52.7;;;29.8;;
61499;SDS011;47361;49.996;19.918;2024-01-30T15:12:40;52.7;;;29.8;;
61499;SDS011;47361;49.996;19.918;2024-01-30T15:13:40;52.7;;;29.8;;
61499;SDS011;47361;49.996;19.918;2024-01-30T15:14:40;53.7;;;29.7;;
61499;SDS011;47361;49.996;19.918;2024-01-30T15:16:40;53.7;;;29.7;;
61499;SDS011;47361;49.996;19.918;2024-01-30T15:17:40;53.7;;;29.7;;
61499;SDS011;47361;49.996;19.918;2024-01-30T15:18:40;53.7;;;29.7;;
61499;SDS011;47361;49.996;19.918;2024-01-30T15:19:40;59.4;;;33.2;;
61499;SDS011;47361;49.996;19.918;2024-01-30T15:20:40;59.4;;;33.2;;
61499;SDS011;47361;49.996;19.918;2024-01-30T15:21:40;59.4;;;33.2;;
61499;SDS011;47361;49.996;19.918;2024-01-30T15:22:40;59.4;;;33.2;;
61499;SDS011;47361;49.996;19.918;2024-01-30T15:23:40;59.4;;;33.2;;
61499;SDS011;47361;49.996;19.918;2024-01-30T15:25:40;57.7;;;33.1;;
61499;SDS011;47361;49.996;19.918;2024-01-30T15:26:40;57.7;;;33.1;;
61499;SDS011;47361;49.996;19.918;2024-01-30T15:27:40;57.7;;;33.1;;
61499;SDS011;47361;49.996;19.918;2024-01-30T15:28:40;57.7;;;33.1;;
61499;SDS011;47361;49.996;19.918;2024-01-30T15:30:40;62.9;;;35.9;;
61499;SDS011;47361;49.996;19.918;2024-01-30T15:31:40;62.9;;;35.9;;
61499;SDS011;47361;49.996;19.918;2024-01-30T15:32:40;62.9;;;35.9;;
61499;SDS011;47361;49.996;19.918;2024-01-30T15:33:40;62.9;;;35.9;;
61499;SDS011;47361;49.996;19.918;2024-01-30T15:34:40;66.8;;;37.3;;
61499;SDS011;47361;49.996;19.918;2024-01-30T15:36:40;66.8;;;37.3;;
61499;SDS011;47361;49.996;19.918;2024-01-30T15:37:40;66.8;;;37.3;;
61499;SDS011;47361;49.996;19.918;2024-01-30T15:38:40;66.8;;;37.3;;
61499;SDS011;47361;49.996;19.918;2024-01-30T15:40:40;61.7;;;35.0;;
61499;SDS011;47361;49.996;19.918;2024-01-30T15:41:40;61.7;;;35.0;;
61499;SDS011;47361;49.996;19.918;2024-01-30T15:42:40;61.7;;;35.0;;
61499;SDS011;47361;49.996;19.918;2024-01-30T15:43:40;61.7;;;35.0;;
61499;SDS011;47361;49.996;19.918;2024-01-30T15:46:40;65.5;;;38.0;;
61499;SDS011;47361;49.996;19.918;2024-01-30T15:47:40;65.5;;;38.0;;
61499;SDS011;47361;49.996;19.918;2024-01-30T15:48:40;65.5;;;38.0;;
61499;SDS011;47361;49.996;19.918;2024-01-30T15:51:40;68.4;;;38.6;;
61499;SDS011;47361;49.996;19.918;2024-01-30T15:52:40;68.4;;;38.6;;
61499;SDS011;47361;49.996;19.918;2024-01-30T15:55:40;75.0;;;40.9;;
61499;SDS011;47361;49.996;19.918;2024-01-30T15:57:40;75.0;;;40.9;;
61499;SDS011;47361;49.996;19.918;2024-01-30T15:58:40;75.0;;;40.9;;
61499;SDS011;47361;49.996;19.918;2024-01-30T16:01:40;73.1;;;38.5;;
61499;SDS011;47361;49.996;19.918;2024-01-30T16:02:40;73.1;;;38.5;;
61499;SDS011;47361;49.996;19.918;2024-01-30T16:03:40;73.1;;;38.5;;
61499;SDS011;47361;49.996;19.918;2024-01-30T16:04:40;72.8;;;37.7;;
61499;SDS011;47361;49.996;19.918;2024-01-30T16:05:40;72.8;;;37.7;;
61499;SDS011;47361;49.996;19.918;2024-01-30T16:07:40;72.8;;;37.7;;
61499;SDS011;47361;49.996;19.918;2024-01-30T16:08:40;72.8;;;37.7;;
61499;SDS011;47361;49.996;19.918;2024-01-30T16:11:40;69.9;;;36.5;;
61499;SDS011;47361;49.996;19.918;2024-01-30T16:13:40;69.9;;;36.5;;
61499;SDS011;47361;49.996;19.918;2024-01-30T16:16:40;65.3;;;35.3;;
61499;SDS011;47361;49.996;19.918;2024-01-30T16:17:40;65.3;;;35.3;;
61499;SDS011;47361;49.996;19.918;2024-01-30T16:21:40;68.9;;;35.9;;
61499;SDS011;47361;49.996;19.918;2024-01-30T16:27:40;70.0;;;36.0;;
61499;SDS011;47361;49.996;19.918;2024-01-30T16:30:40;66.0;;;33.8;;
61499;SDS011;47361;49.996;19.918;2024-01-30T16:32:40;66.0;;;33.8;;
61499;SDS011;47361;49.996;19.918;2024-01-30T16:36:40;64.8;;;35.8;;
61499;SDS011;47361;49.996;19.918;2024-01-30T16:37:40;64.8;;;35.8;;
61499;SDS011;47361;49.996;19.918;2024-01-30T16:38:40;64.8;;;35.8;;
61499;SDS011;47361;49.996;19.918;2024-01-30T16:40:40;65.0;;;34.3;;